createdAt,value
2019-02-16T00:02:26.404Z,13.22
2019-02-16T00:04:56.574Z,13.90
2019-02-16T00:09:56.928Z,13.58
2019-02-16T00:12:29.212Z,14.55
2019-02-16T00:15:00.664Z,13.98
2019-02-16T00:17:29.972Z,14.23
2019-02-16T00:19:58.938Z,14.83
2019-02-16T00:22:33.895Z,14.58
2019-02-16T00:25:07.082Z,14.40
2019-02-16T00:27:38.725Z,14.47
2019-02-16T00:30:07.826Z,14.73
2019-02-16T00:32:36.837Z,15.35
2019-02-16T00:35:15.085Z,15.58
2019-02-16T00:37:44.062Z,15.35
2019-02-16T00:40:13.031Z,15.15
2019-02-16T00:42:41.999Z,15.23
2019-02-16T00:45:11.021Z,16.15
2019-02-16T00:47:40.003Z,15.18
2019-02-16T00:50:21.725Z,15.32
2019-02-16T00:52:45.972Z,15.95
2019-02-16T00:55:16.491Z,16.97
2019-02-16T00:57:47.078Z,15.68
2019-02-16T01:00:17.813Z,15.98
2019-02-16T01:02:51.443Z,15.98
2019-02-16T01:05:20.416Z,15.83
2019-02-16T01:07:49.383Z,16.05
2019-02-16T01:10:22.335Z,16.10
2019-02-16T01:12:51.290Z,14.95
2019-02-16T01:15:24.055Z,16.73
2019-02-16T01:17:54.635Z,15.65
2019-02-16T01:20:23.601Z,16.02
2019-02-16T01:22:53.679Z,16.40
2019-02-16T01:25:24.249Z,16.73
2019-02-16T01:27:53.370Z,16.23
2019-02-16T01:30:24.475Z,16.12
2019-02-16T01:32:53.484Z,15.95
2019-02-16T01:35:25.911Z,16.52
2019-02-16T01:37:54.968Z,16.75
2019-02-16T01:40:24.465Z,17.25
2019-02-16T01:42:53.635Z,16.60
2019-02-16T01:45:24.438Z,15.80
2019-02-16T01:47:53.625Z,17.00
2019-02-16T01:50:23.133Z,16.43
2019-02-16T01:52:52.128Z,17.02
2019-02-16T01:55:21.129Z,17.35
2019-02-16T01:57:50.247Z,16.62
2019-02-16T02:00:19.238Z,17.35
2019-02-16T02:02:51.813Z,16.95
2019-02-16T02:05:22.815Z,16.55
2019-02-16T02:07:57.451Z,17.65
2019-02-16T02:10:29.722Z,17.73
2019-02-16T02:13:02.114Z,17.37
2019-02-16T02:15:31.270Z,18.17
2019-02-16T02:18:01.827Z,18.40
2019-02-16T02:20:43.126Z,17.87
2019-02-16T02:23:12.149Z,18.17
2019-02-16T02:25:42.667Z,18.10
2019-02-16T02:28:11.732Z,17.30
2019-02-16T02:30:40.738Z,18.05
2019-02-16T02:33:11.052Z,18.00
2019-02-16T02:35:40.106Z,18.37
2019-02-16T02:38:09.177Z,18.10
2019-02-16T02:40:38.212Z,17.95
2019-02-16T02:43:07.267Z,18.15
2019-02-16T02:45:36.293Z,18.12
2019-02-16T02:48:07.163Z,18.45
2019-02-16T02:51:01.565Z,18.17
2019-02-16T02:53:31.676Z,18.12
2019-02-16T02:56:02.695Z,18.30
2019-02-16T02:58:31.757Z,20.15
2019-02-16T03:01:04.233Z,18.20
2019-02-16T03:03:35.695Z,18.70
2019-02-16T03:06:07.749Z,18.80
2019-02-16T03:08:38.368Z,18.10
2019-02-16T03:11:10.729Z,18.55
2019-02-16T03:13:42.370Z,17.85
2019-02-16T03:16:13.081Z,18.77
2019-02-16T03:18:50.429Z,19.00
2019-02-16T03:21:19.502Z,19.40
2019-02-16T03:23:48.587Z,19.02
2019-02-16T03:26:19.122Z,18.77
2019-02-16T03:28:49.659Z,19.65
2019-02-16T03:31:31.746Z,19.92
2019-02-16T03:34:20.998Z,19.05
2019-02-16T03:37:09.077Z,19.50
2019-02-16T03:39:44.417Z,19.07
2019-02-16T03:42:13.508Z,19.87
2019-02-16T03:44:46.356Z,19.57
2019-02-16T03:47:15.380Z,18.67
2019-02-16T03:49:50.600Z,19.42
2019-02-16T03:52:19.610Z,18.75
2019-02-16T03:54:48.597Z,19.95
2019-02-16T03:57:18.031Z,19.23
2019-02-16T03:59:49.814Z,19.55
2019-02-16T04:02:21.594Z,19.30
2019-02-16T04:04:52.271Z,18.98
2019-02-16T04:07:21.254Z,20.12
2019-02-16T04:09:52.011Z,18.65
2019-02-16T04:12:25.783Z,19.17
2019-02-16T04:15:02.616Z,19.05
2019-02-16T04:17:33.121Z,19.48
2019-02-16T04:20:02.161Z,20.02
2019-02-16T04:22:35.100Z,18.92
2019-02-16T04:25:04.475Z,20.05
2019-02-16T04:27:39.581Z,20.23
2019-02-16T04:30:08.983Z,19.87
2019-02-16T04:32:39.918Z,20.08
2019-02-16T04:35:08.651Z,19.55
2019-02-16T04:37:37.675Z,20.37
2019-02-16T04:40:06.759Z,19.82
2019-02-16T04:42:35.738Z,19.65
2019-02-16T04:45:05.931Z,20.02
2019-02-16T04:50:04.152Z,19.48
2019-02-16T04:52:35.059Z,19.85
2019-02-16T04:55:07.219Z,19.57
2019-02-16T04:57:36.273Z,19.77
2019-02-16T05:00:06.006Z,19.20
2019-02-16T05:02:34.984Z,19.82
2019-02-16T05:05:04.609Z,19.00
2019-02-16T05:07:36.156Z,19.92
2019-02-16T05:10:07.251Z,20.68
2019-02-16T05:12:36.234Z,20.27
2019-02-16T05:15:06.765Z,21.57
2019-02-16T05:17:43.997Z,20.68
2019-02-16T05:20:18.233Z,20.65
2019-02-16T05:22:48.696Z,19.57
2019-02-16T05:25:18.352Z,19.60
2019-02-16T05:27:47.374Z,19.87
2019-02-16T05:30:17.888Z,20.40
2019-02-16T05:32:47.067Z,19.73
2019-02-16T05:35:16.094Z,20.53
2019-02-16T05:37:47.506Z,20.70
2019-02-16T05:40:17.681Z,20.40
2019-02-16T05:42:48.339Z,20.82
2019-02-16T05:45:17.296Z,21.30
2019-02-16T05:47:46.256Z,20.55
2019-02-16T05:50:15.227Z,20.60
2019-02-16T05:52:53.767Z,20.35
2019-02-16T05:55:21.095Z,20.52
2019-02-16T05:57:50.086Z,20.92
2019-02-16T06:00:21.918Z,20.70
2019-02-16T06:02:54.206Z,20.10
2019-02-16T06:05:23.255Z,19.48
2019-02-16T06:07:52.262Z,19.48
2019-02-16T06:10:25.076Z,20.65
2019-02-16T06:12:54.519Z,20.77
2019-02-16T06:15:26.012Z,20.12
2019-02-16T06:17:56.997Z,20.00
2019-02-16T06:20:25.636Z,20.05
2019-02-16T06:23:03.876Z,19.75
2019-02-16T06:25:31.356Z,19.82
2019-02-16T06:28:06.520Z,20.40
2019-02-16T06:30:37.973Z,19.42
2019-02-16T06:33:06.927Z,21.10
2019-02-16T06:35:42.937Z,21.42
2019-02-16T06:38:12.041Z,20.80
2019-02-16T06:40:44.057Z,21.05
2019-02-16T06:43:13.025Z,21.30
2019-02-16T06:45:42.009Z,21.45
2019-02-16T06:48:10.969Z,21.25
2019-02-16T06:50:42.878Z,20.97
2019-02-16T06:53:19.328Z,21.75
2019-02-16T06:55:53.561Z,21.10
2019-02-16T06:58:22.147Z,21.02
2019-02-16T07:00:53.015Z,22.13
2019-02-16T07:03:24.721Z,21.23
2019-02-16T07:05:56.322Z,22.50
2019-02-16T07:08:25.417Z,22.65
2019-02-16T07:10:54.399Z,21.50
2019-02-16T07:13:23.390Z,22.70
2019-02-16T07:16:11.967Z,22.42
2019-02-16T07:18:42.575Z,21.97
2019-02-16T07:21:11.548Z,22.73
2019-02-16T07:23:43.562Z,23.65
2019-02-16T07:26:15.106Z,22.15
2019-02-16T07:31:19.554Z,22.85
2019-02-16T07:33:50.168Z,23.32
2019-02-16T07:36:19.154Z,22.02
2019-02-16T07:38:51.591Z,22.90
2019-02-16T07:41:20.944Z,23.15
2019-02-16T07:44:06.558Z,22.80
2019-02-16T07:46:50.917Z,23.67
2019-02-16T07:49:23.156Z,23.42
2019-02-16T07:52:09.709Z,23.22
2019-02-16T07:54:44.154Z,24.10
2019-02-16T07:57:20.301Z,23.87
2019-02-16T07:59:58.155Z,24.20
2019-02-16T08:02:32.346Z,24.72
2019-02-16T08:05:12.922Z,24.52
2019-02-16T08:07:59.390Z,24.87
2019-02-16T08:10:32.814Z,23.38
2019-02-16T08:13:03.416Z,24.82
2019-02-16T08:15:45.802Z,25.12
2019-02-16T08:18:30.831Z,25.02
2019-02-16T08:21:04.042Z,25.50
2019-02-16T08:23:45.624Z,24.65
2019-02-16T08:26:18.775Z,25.00
2019-02-16T08:28:54.372Z,26.45
2019-02-16T08:31:26.721Z,25.70
2019-02-16T08:33:57.630Z,24.40
2019-02-16T08:36:31.490Z,26.05
2019-02-16T08:39:17.600Z,25.12
2019-02-16T08:41:55.771Z,23.73
2019-02-16T08:44:34.660Z,25.92
2019-02-16T08:47:20.357Z,25.12
2019-02-16T08:49:50.947Z,24.65
2019-02-16T08:55:15.998Z,24.63
2019-02-16T08:58:01.548Z,24.98
2019-02-16T09:00:32.140Z,25.02
2019-02-16T09:03:19.122Z,24.25
2019-02-16T09:05:55.341Z,26.05
2019-02-16T09:08:33.937Z,25.40
2019-02-16T09:11:13.455Z,25.12
2019-02-16T09:13:52.839Z,25.82
2019-02-16T09:16:26.747Z,25.80
2019-02-16T09:18:57.362Z,25.80
2019-02-16T09:21:30.605Z,25.08
2019-02-16T09:24:06.187Z,24.70
2019-02-16T09:26:47.029Z,25.68
2019-02-16T09:29:23.577Z,24.12
2019-02-16T09:32:06.143Z,23.87
2019-02-16T09:34:43.039Z,25.02
2019-02-16T09:37:19.425Z,25.52
2019-02-16T09:40:06.770Z,25.17
2019-02-16T09:42:37.369Z,25.97
2019-02-16T09:45:29.635Z,25.02
2019-02-16T09:48:08.338Z,25.50
2019-02-16T09:50:38.935Z,25.62
2019-02-16T09:53:18.308Z,25.82
2019-02-16T09:55:48.911Z,26.27
2019-02-16T09:58:37.965Z,25.02
2019-02-16T10:01:17.511Z,25.57
2019-02-16T10:04:11.414Z,26.00
2019-02-16T10:06:48.275Z,26.17
2019-02-16T10:09:23.096Z,25.52
2019-02-16T10:12:15.251Z,26.40
2019-02-16T10:15:02.284Z,26.52
2019-02-16T10:17:39.641Z,25.90
2019-02-16T10:20:10.555Z,24.60
2019-02-16T10:22:43.737Z,25.77
2019-02-16T10:25:30.584Z,26.15
2019-02-16T10:28:08.724Z,26.20
2019-02-16T10:30:52.859Z,25.35
2019-02-16T10:33:32.410Z,25.77
2019-02-16T10:36:19.056Z,26.33
2019-02-16T10:39:02.624Z,26.37
2019-02-16T10:41:51.036Z,27.00
2019-02-16T10:44:29.560Z,25.55
2019-02-16T10:49:38.490Z,25.82
2019-02-16T10:52:28.274Z,26.40
2019-02-16T10:55:15.238Z,26.65
2019-02-16T10:57:45.896Z,28.12
2019-02-16T11:00:37.890Z,27.25
2019-02-16T11:03:17.538Z,26.30
2019-02-16T11:05:48.130Z,27.10
2019-02-16T11:08:21.478Z,26.80
2019-02-16T11:10:54.992Z,28.23
2019-02-16T11:13:34.307Z,27.67
2019-02-16T11:16:09.312Z,27.80
2019-02-16T11:18:42.934Z,28.07
2019-02-16T11:21:14.564Z,26.60
2019-02-16T11:23:58.770Z,27.70
2019-02-16T11:26:32.210Z,25.88
2019-02-16T11:29:05.577Z,27.02
2019-02-16T11:31:38.883Z,26.12
2019-02-16T11:34:24.943Z,26.97
2019-02-16T11:37:04.473Z,27.25
2019-02-16T11:39:55.599Z,27.10
2019-02-16T11:42:28.970Z,27.32
2019-02-16T11:45:05.543Z,26.75
2019-02-16T11:47:39.076Z,27.87
2019-02-16T11:50:23.059Z,27.00
2019-02-16T11:55:59.872Z,27.32
2019-02-16T11:58:48.663Z,27.80
2019-02-16T12:01:21.790Z,27.40
2019-02-16T12:04:02.569Z,28.15
2019-02-16T12:06:35.232Z,28.80
2019-02-16T12:09:09.374Z,28.80
2019-02-16T12:11:56.211Z,28.60
2019-02-16T12:14:30.966Z,27.40
2019-02-16T12:17:01.665Z,28.45
2019-02-16T12:19:32.604Z,27.17
2019-02-16T12:22:03.200Z,29.27
2019-02-16T12:24:35.435Z,28.02
2019-02-16T12:27:08.669Z,28.57
2019-02-16T12:29:39.406Z,29.05
2019-02-16T12:32:18.771Z,28.05
2019-02-16T12:35:01.192Z,27.93
2019-02-16T12:37:34.518Z,27.67
2019-02-16T12:40:25.963Z,27.45
2019-02-16T12:43:05.247Z,29.32
2019-02-16T12:45:35.890Z,29.42
2019-02-16T12:48:21.606Z,28.45
2019-02-16T12:51:06.162Z,28.23
2019-02-16T12:53:45.744Z,27.85
2019-02-16T12:56:32.138Z,27.48
2019-02-16T12:59:11.572Z,28.52
2019-02-16T13:01:56.229Z,27.75
2019-02-16T13:04:30.120Z,29.52
2019-02-16T13:07:00.810Z,28.70
2019-02-16T13:09:31.396Z,28.60
2019-02-16T13:12:12.940Z,29.02
2019-02-16T13:14:43.615Z,29.12
2019-02-16T13:17:32.476Z,27.52
2019-02-16T13:20:15.222Z,28.77
2019-02-16T13:22:51.312Z,27.93
2019-02-16T13:25:24.480Z,28.87
2019-02-16T13:28:12.252Z,28.60
2019-02-16T13:30:58.977Z,30.68
2019-02-16T13:33:49.483Z,29.67
2019-02-16T13:36:37.853Z,29.23
2019-02-16T13:39:08.736Z,29.48
2019-02-16T13:41:42.081Z,30.72
2019-02-16T13:44:17.260Z,29.90
2019-02-16T13:46:56.658Z,29.02
2019-02-16T13:49:29.691Z,29.45
2019-02-16T13:52:12.184Z,28.95
2019-02-16T13:54:58.099Z,29.42
2019-02-16T13:57:45.515Z,29.87
2019-02-16T14:00:17.384Z,28.90
2019-02-16T14:02:59.633Z,29.10
2019-02-16T14:05:46.670Z,28.85
2019-02-16T14:08:28.209Z,29.23
2019-02-16T14:13:53.044Z,29.85
2019-02-16T14:16:35.175Z,30.02
2019-02-16T14:19:04.150Z,28.20
2019-02-16T14:21:33.118Z,29.55
2019-02-16T14:24:05.669Z,30.12
2019-02-16T14:26:34.629Z,28.55
2019-02-16T14:29:06.166Z,29.92
2019-02-16T14:31:38.725Z,29.25
2019-02-16T14:34:07.779Z,29.10
2019-02-16T14:36:36.805Z,30.33
2019-02-16T14:39:11.621Z,29.60
2019-02-16T14:41:42.225Z,29.37
2019-02-16T14:44:14.066Z,29.25
2019-02-16T14:46:44.717Z,28.92
2019-02-16T14:49:15.295Z,29.18
2019-02-16T14:51:47.105Z,28.70
2019-02-16T14:54:17.566Z,28.30
2019-02-16T14:56:49.836Z,28.45
2019-02-16T14:59:18.853Z,28.35
2019-02-16T15:01:47.849Z,29.32
2019-02-16T15:04:16.825Z,30.95
2019-02-16T15:06:47.421Z,29.25
2019-02-16T15:09:24.420Z,29.02
2019-02-16T15:11:54.640Z,29.87
2019-02-16T15:14:28.844Z,28.67
2019-02-16T15:16:57.863Z,29.87
2019-02-16T15:19:26.878Z,31.17
2019-02-16T15:21:59.041Z,30.45
2019-02-16T15:24:28.007Z,28.98
2019-02-16T15:26:57.085Z,31.05
2019-02-16T15:29:26.049Z,31.40
2019-02-16T15:31:55.129Z,29.65
2019-02-16T15:34:25.888Z,28.27
2019-02-16T15:36:54.837Z,30.93
2019-02-16T15:39:23.853Z,31.05
2019-02-16T15:41:53.003Z,30.50
2019-02-16T15:44:22.236Z,30.07
2019-02-16T15:46:52.723Z,30.82
2019-02-16T15:49:30.386Z,29.15
2019-02-16T15:51:59.381Z,28.67
2019-02-16T15:54:28.461Z,30.50
2019-02-16T15:57:00.449Z,29.23
2019-02-16T15:59:35.186Z,29.07
2019-02-16T16:02:00.114Z,29.98
2019-02-16T16:04:29.238Z,31.60
2019-02-16T16:06:59.371Z,29.90
2019-02-16T16:09:34.500Z,29.45
2019-02-16T16:12:06.761Z,30.05
2019-02-16T16:14:38.595Z,30.10
2019-02-16T16:17:15.314Z,30.80
2019-02-16T16:19:50.365Z,31.68
2019-02-16T16:22:27.689Z,30.65
2019-02-16T16:25:18.402Z,30.77
2019-02-16T16:27:51.509Z,32.00
2019-02-16T16:30:30.779Z,32.40
2019-02-16T16:33:05.870Z,33.80
2019-02-16T16:35:36.486Z,33.45
2019-02-16T16:38:13.260Z,32.50
2019-02-16T16:41:00.258Z,33.55
2019-02-16T16:43:33.544Z,33.35
2019-02-16T16:46:07.132Z,34.40
2019-02-16T16:48:46.597Z,35.20
2019-02-16T16:51:17.227Z,35.20
2019-02-16T16:53:52.373Z,35.65
2019-02-16T16:56:39.722Z,37.17
2019-02-16T16:59:23.834Z,35.48
2019-02-16T17:02:10.817Z,35.10
2019-02-16T17:04:58.986Z,44.35
2019-02-16T17:07:44.523Z,41.50
2019-02-16T17:10:17.621Z,37.48
2019-02-16T17:12:52.631Z,38.50
2019-02-16T17:15:33.258Z,37.35
2019-02-16T17:18:03.877Z,38.23
2019-02-16T17:20:49.627Z,35.85
2019-02-16T17:23:35.255Z,36.80
2019-02-16T17:26:17.955Z,36.10
2019-02-16T17:29:03.536Z,37.15
2019-02-16T17:31:47.626Z,39.73
2019-02-16T17:34:18.554Z,39.30
2019-02-16T17:37:05.988Z,39.35
2019-02-16T17:39:42.583Z,37.08
2019-02-16T17:42:22.056Z,36.77
2019-02-16T17:48:03.161Z,38.53
2019-02-16T17:50:33.765Z,39.33
2019-02-16T17:53:04.413Z,37.85
2019-02-16T17:55:41.443Z,38.80
2019-02-16T17:58:14.482Z,39.03
2019-02-16T18:01:03.428Z,39.42
2019-02-16T18:03:35.441Z,38.88
2019-02-16T18:06:07.657Z,37.75
2019-02-16T18:08:45.385Z,40.38
2019-02-16T18:11:18.479Z,38.40
2019-02-16T18:13:56.653Z,40.67
2019-02-16T18:16:45.802Z,37.73
2019-02-16T18:19:25.087Z,40.75
2019-02-16T18:21:55.767Z,42.83
2019-02-16T18:24:33.187Z,42.10
2019-02-16T18:27:18.999Z,41.13
2019-02-16T18:30:06.059Z,42.15
2019-02-16T18:32:51.823Z,41.23
2019-02-16T18:35:24.234Z,40.25
2019-02-16T18:37:54.756Z,41.80
2019-02-16T18:40:40.681Z,41.75
2019-02-16T18:43:24.546Z,42.98
2019-02-16T18:46:09.662Z,40.40
2019-02-16T18:48:43.377Z,43.28
2019-02-16T18:51:31.853Z,43.63
2019-02-16T18:54:18.716Z,42.88
2019-02-16T18:57:06.123Z,41.60
2019-02-16T18:59:37.606Z,43.60
2019-02-16T19:02:25.786Z,42.20
2019-02-16T19:04:59.406Z,43.83
2019-02-16T19:07:32.785Z,42.93
2019-02-16T19:10:06.391Z,44.27
2019-02-16T19:12:50.697Z,42.48
2019-02-16T19:15:39.667Z,42.48
2019-02-16T19:18:12.151Z,42.65
2019-02-16T19:20:44.671Z,42.70
2019-02-16T19:23:34.587Z,43.15
2019-02-16T19:26:07.716Z,42.53
2019-02-16T19:28:38.324Z,45.43
2019-02-16T19:31:11.658Z,43.68
2019-02-16T19:33:50.569Z,43.83
2019-02-16T19:36:23.937Z,45.35
2019-02-16T19:38:57.157Z,46.08
2019-02-16T19:41:27.789Z,43.08
2019-02-16T19:44:16.325Z,44.18
2019-02-16T19:46:55.901Z,43.25
2019-02-16T19:49:35.288Z,44.67
2019-02-16T19:52:08.801Z,44.08
2019-02-16T19:54:55.970Z,43.83
2019-02-16T19:57:29.403Z,43.48
2019-02-16T20:00:02.748Z,44.03
2019-02-16T20:02:46.246Z,42.83
2019-02-16T20:05:19.605Z,41.58
2019-02-16T20:07:51.479Z,41.05
2019-02-16T20:10:28.119Z,40.58
2019-02-16T20:13:14.913Z,42.83
2019-02-16T20:15:48.517Z,44.42
2019-02-16T20:18:22.062Z,44.10
2019-02-16T20:20:56.285Z,41.80
2019-02-16T20:23:45.587Z,41.75
2019-02-16T20:26:21.616Z,39.20
2019-02-16T20:29:10.343Z,42.58
2019-02-16T20:32:04.400Z,44.85
2019-02-16T20:34:35.022Z,43.70
2019-02-16T20:37:08.393Z,40.52
2019-02-16T20:39:41.391Z,45.58
2019-02-16T20:42:23.455Z,44.27
2019-02-16T20:44:56.397Z,46.20
2019-02-16T20:47:37.806Z,46.50
2019-02-16T20:50:09.770Z,44.35
2019-02-16T20:52:58.635Z,45.12
2019-02-16T20:55:31.231Z,43.30
2019-02-16T20:58:10.255Z,43.33
2019-02-16T21:01:02.248Z,41.53
2019-02-16T21:03:35.322Z,46.37
2019-02-16T21:06:08.837Z,44.88
2019-02-16T21:08:39.789Z,46.08
2019-02-16T21:11:27.957Z,48.95
2019-02-16T21:14:13.502Z,50.03
2019-02-16T21:16:54.937Z,48.30
2019-02-16T21:19:33.787Z,47.30
2019-02-16T21:22:09.921Z,46.68
2019-02-16T21:24:48.668Z,46.88
2019-02-16T21:27:23.520Z,46.18
2019-02-16T21:29:59.236Z,45.05
2019-02-16T21:32:38.720Z,49.58
2019-02-16T21:35:15.224Z,49.35
2019-02-16T21:37:51.664Z,50.88
2019-02-16T21:40:28.514Z,48.55
2019-02-16T21:42:59.258Z,54.48
2019-02-16T21:45:46.920Z,54.48
2019-02-16T21:48:19.658Z,52.85
2019-02-16T21:50:52.890Z,53.05
2019-02-16T21:53:24.051Z,51.40
2019-02-16T21:55:57.773Z,51.37
2019-02-16T21:58:32.234Z,51.60
2019-02-16T22:01:10.865Z,53.30
2019-02-16T22:03:53.275Z,52.90
2019-02-16T22:06:25.828Z,53.08
2019-02-16T22:09:00.370Z,51.15
2019-02-16T22:11:40.047Z,48.98
2019-02-16T22:14:10.794Z,50.58
2019-02-16T22:16:39.847Z,53.15
2019-02-16T22:19:08.849Z,50.20
2019-02-16T22:21:39.072Z,51.30
2019-02-16T22:24:08.039Z,52.35
2019-02-16T22:26:37.023Z,50.83
2019-02-16T22:31:38.522Z,49.45
2019-02-16T22:34:07.639Z,47.70
2019-02-16T22:36:39.722Z,49.30
2019-02-16T22:39:09.334Z,51.53
2019-02-16T22:41:38.290Z,49.67
2019-02-16T22:44:07.263Z,51.02
2019-02-16T22:46:38.945Z,50.85
2019-02-16T22:49:07.921Z,51.37
2019-02-16T22:51:36.892Z,50.48
2019-02-16T22:54:06.623Z,50.10
2019-02-16T22:56:37.485Z,50.92
2019-02-16T22:59:12.868Z,49.25
2019-02-16T23:01:44.095Z,50.85
2019-02-16T23:04:13.048Z,50.60
2019-02-16T23:06:42.034Z,50.50
2019-02-16T23:09:12.713Z,49.80
2019-02-16T23:11:43.511Z,47.38
2019-02-16T23:14:12.503Z,47.43
2019-02-16T23:16:41.531Z,50.00
2019-02-16T23:19:10.517Z,48.78
2019-02-16T23:21:41.021Z,48.90
2019-02-16T23:24:19.942Z,46.95
2019-02-16T23:26:48.601Z,46.18
2019-02-16T23:29:18.449Z,45.08
2019-02-16T23:31:49.197Z,43.13
2019-02-16T23:34:19.747Z,47.03
2019-02-16T23:36:50.221Z,45.28
2019-02-16T23:39:19.185Z,44.95
2019-02-16T23:41:48.172Z,44.25
2019-02-16T23:44:17.153Z,44.25
2019-02-16T23:46:46.136Z,42.67
2019-02-16T23:49:16.277Z,43.25
2019-02-16T23:54:13.546Z,41.53
2019-02-16T23:56:43.243Z,43.48
2019-02-16T23:59:15.084Z,43.80
